Virginiborg — PBDL — position and weather

sailwx.info

Track history (hours):
 
Tides and Currents Weather Stations Pressure Air Temp Water Temp Dewpoint Dewpoint Depression Visibility Wind Speed Wind Dir Waves Ship Positions

Virginiborg

Last reported at 2017-Mar-18 17:16 UTC. Time now 2017-Mar-23 02:18 UTC.
Position N 31°50' E 034°37'.

Length 132 m; draft 5.8 m.

Type: Cargo ship. MMSI: 244632000.

Date/timePositionNaut miles runAvg speedWind from/ knotsBaromVisibWave heightAir tempDewpointWater temp
2017-Mar-18 17:16N 31°50' E 034°37'0 0.0
2017-Mar-18 16:28N 31°50' E 034°37'0 0.0
2017-Mar-18 10:07N 31°50' E 034°37'  
2017-Mar-10 19:20N 35°49' E 014°35'0 0.0
2017-Mar-10 17:05N 35°49' E 014°35'0 0.0
2017-Mar-10 16:33N 35°49' E 014°35'0 0.0
2017-Mar-10 15:33N 35°49' E 014°35'0 0.0
2017-Mar-10 14:33N 35°49' E 014°35'0 0.2
2017-Mar-10 13:33N 35°49' E 014°35'2 2.3
2017-Mar-10 12:33N 35°47' E 014°36'9 9.3
2017-Mar-10 11:33N 35°53' E 014°44'5 5.4
2017-Mar-10 10:32N 35°56' E 014°50'0 0.0
2017-Mar-10 09:29N 35°56' E 014°50'0 0.0
2017-Mar-10 08:31N 35°56' E 014°50'0 0.0
2017-Mar-10 07:30N 35°56' E 014°50'0 0.0
2017-Mar-10 06:29N 35°56' E 014°50'0 0.0
2017-Mar-10 05:33N 35°56' E 014°50'0 0.0
2017-Mar-10 04:33N 35°56' E 014°50'0 0.0
2017-Mar-10 03:27N 35°56' E 014°50'0 0.0
2017-Mar-10 02:29N 35°56' E 014°50'0 0.0
2017-Mar-10 01:29N 35°56' E 014°50'0 0.0
2017-Mar-10 00:24N 35°56' E 014°50'0 0.0
2017-Mar-09 23:21N 35°56' E 014°50'0 0.0
2017-Mar-09 22:28N 35°56' E 014°50'0 0.0
2017-Mar-09 21:27N 35°56' E 014°50'3 2.8
2017-Mar-09 20:33N 35°59' E 014°49'5 4.7
2017-Mar-09 19:32N 36°02' E 014°44'9 8.9
2017-Mar-09 18:33N 36°05' E 014°34'1111.1
2017-Mar-09 17:33N 36°14' E 014°26'9 8.6
2017-Mar-09 16:33N 36°17' E 014°16'9 9.1
2017-Mar-09 15:33N 36°17' E 014°05'10 9.7
2017-Mar-09 14:33N 36°17' E 013°53'1312.9
2017-Mar-09 13:32N 36°23' E 013°39'  
Track history (hours):
 
Tides and Currents Weather Stations Pressure Air Temp Water Temp Dewpoint Dewpoint Depression Visibility Wind Speed Wind Dir Waves Ship Positions

Virginiborg

Last reported at 2017-Mar-18 17:16 UTC. Time now 2017-Mar-23 02:18 UTC.
Position N 31°50' E 034°37'.

Length 132 m; draft 5.8 m.

Type: Cargo ship. MMSI: 244632000.

Date/timePositionNaut miles runAvg speedWind from/ knotsBaromVisibWave heightAir tempDewpointWater temp
2017-Mar-18 17:16N 31°50' E 034°37'0 0.0
2017-Mar-18 16:28N 31°50' E 034°37'0 0.0
2017-Mar-18 10:07N 31°50' E 034°37'  
2017-Mar-10 19:20N 35°49' E 014°35'0 0.0
2017-Mar-10 17:05N 35°49' E 014°35'0 0.0
2017-Mar-10 16:33N 35°49' E 014°35'0 0.0
2017-Mar-10 15:33N 35°49' E 014°35'0 0.0
2017-Mar-10 14:33N 35°49' E 014°35'0 0.2
2017-Mar-10 13:33N 35°49' E 014°35'2 2.3
2017-Mar-10 12:33N 35°47' E 014°36'9 9.3
2017-Mar-10 11:33N 35°53' E 014°44'5 5.4
2017-Mar-10 10:32N 35°56' E 014°50'0 0.0
2017-Mar-10 09:29N 35°56' E 014°50'0 0.0
2017-Mar-10 08:31N 35°56' E 014°50'0 0.0
2017-Mar-10 07:30N 35°56' E 014°50'0 0.0
2017-Mar-10 06:29N 35°56' E 014°50'0 0.0
2017-Mar-10 05:33N 35°56' E 014°50'0 0.0
2017-Mar-10 04:33N 35°56' E 014°50'0 0.0
2017-Mar-10 03:27N 35°56' E 014°50'0 0.0
2017-Mar-10 02:29N 35°56' E 014°50'0 0.0
2017-Mar-10 01:29N 35°56' E 014°50'0 0.0
2017-Mar-10 00:24N 35°56' E 014°50'0 0.0
2017-Mar-09 23:21N 35°56' E 014°50'0 0.0
2017-Mar-09 22:28N 35°56' E 014°50'0 0.0
2017-Mar-09 21:27N 35°56' E 014°50'3 2.8
2017-Mar-09 20:33N 35°59' E 014°49'5 4.7
2017-Mar-09 19:32N 36°02' E 014°44'9 8.9
2017-Mar-09 18:33N 36°05' E 014°34'1111.1
2017-Mar-09 17:33N 36°14' E 014°26'9 8.6
2017-Mar-09 16:33N 36°17' E 014°16'9 9.1
2017-Mar-09 15:33N 36°17' E 014°05'10 9.7
2017-Mar-09 14:33N 36°17' E 013°53'1312.9
2017-Mar-09 13:32N 36°23' E 013°39'  

Dump ship's entire track history